Hauptseite
METAR-TAF:

METAR-TAF

Flughäfen :

Oberpfaffenhofen, Deutschland

Breite: 48-05N, Länge: 011-17E, Höhe: 600 m

Beobachtung

Neuester Wetterbericht von vor 2 Stunden und 36 Minuten, um 17:50 UTC
Wind 3 kt aus Nord/Nordost
Temperatur -1°C
Luftfeuchtigkeit 86%
Luftdruck 1024 hPa
Sichtweite 10 km oder mehr
Durchbrochene Bewölkung in der Höhe von 3600 ft

METAR: EDMO 181750Z 03003KT 9999 BKN036 M01/M03 Q1024

Zeit: 21:26 (20:26 UTC)

Prognose

Neuester Wetterbericht von vor 3 Stunden und 26 Minuten, um 17:00 UTC
Gültige Prognose vom 18 um 18 UTC bis 19 um 03 UTC
Wind 3 kt aus unterschiedlichen Richtungen
Sichtweite 10 km oder mehr
Durchbrochene Bewölkung in der Höhe von 3000 ft

TAF: EDMO 181700Z 1818/1903 VRB03KT 9999 BKN030

Wetterbeobachtungen und Prognosen von mehr als 4000 Flughäfen (METAR und TAF Bericht).

Die verfügbaren Stationen werden durch gelbe und rote Markierungen auf der Karte dargestellt.

Führen Sie die Maus auf sie, um den Namen der Station zu sehen.

Darauf klicken, um die Beobachtung von Wetterbeobachtungen und Prognosen zu sehen.

Um die Karte zu ändern : klicken Sie auf den grünen Tasten mit einem schwarzen Kreuz Zum Vergrößern, auf den grünen Button mit einem Gedankenstrich zu verkleinern, oder auf die grünen Pfeile für benachbarte Karten.


METAR-TAF: